createdAt,value
2022-08-04T00:00:06.769Z,98433.25
2022-08-04T00:03:07.081Z,98435.63
2022-08-04T00:05:45.815Z,98433.97
2022-08-04T00:08:27.136Z,98438.19
2022-08-04T00:10:57.040Z,98431.91
2022-08-04T00:13:26.344Z,98426.59
2022-08-04T00:15:59.526Z,98432.47
2022-08-04T00:18:29.411Z,98429.09
2022-08-04T00:21:01.173Z,98424.41
2022-08-04T00:24:11.948Z,98426.38
2022-08-04T00:26:18.950Z,98423.19
2022-08-04T00:28:48.880Z,98427.81
2022-08-04T00:31:19.292Z,98427.91
2022-08-04T00:34:08.371Z,98426.59
2022-08-04T00:36:36.809Z,98421.09
2022-08-04T00:39:05.063Z,98426.72
2022-08-04T00:41:56.817Z,98423.72
2022-08-04T00:44:34.450Z,98432.84
2022-08-04T00:47:17.458Z,98428.16
2022-08-04T00:50:04.308Z,98433.25
2022-08-04T00:52:49.336Z,98433.59
2022-08-04T00:55:46.814Z,98433.22
2022-08-04T00:58:24.730Z,98436.34
2022-08-04T01:00:59.212Z,98432.16
2022-08-04T01:03:38.679Z,98438.72
2022-08-04T01:06:12.886Z,98428.91
2022-08-04T01:08:51.325Z,98429.66
2022-08-04T01:11:28.671Z,98440.03
2022-08-04T01:14:14.275Z,98434.88
2022-08-04T01:16:50.145Z,98429.47
2022-08-04T01:19:49.499Z,98432.25
2022-08-04T01:22:30.997Z,98433.31
2022-08-04T01:25:22.677Z,98431.06
2022-08-04T01:28:08.363Z,98429.06
2022-08-04T01:30:40.749Z,98433.31
2022-08-04T01:33:11.121Z,98436.25
2022-08-04T01:35:48.235Z,98418.56
2022-08-04T01:38:21.591Z,98425.38
2022-08-04T01:40:53.383Z,98424.63
2022-08-04T01:43:22.348Z,98423.31
2022-08-04T01:45:53.224Z,98420.31
2022-08-04T01:48:26.096Z,98420.53
2022-08-04T01:50:55.083Z,98422.91
2022-08-04T01:53:25.474Z,98427.09
2022-08-04T01:55:55.780Z,98425.59
2022-08-04T01:58:25.298Z,98413.69
2022-08-04T02:01:05.093Z,98419.19
2022-08-04T02:04:18.763Z,98419.56
2022-08-04T02:06:32.887Z,98426.09
2022-08-04T02:09:08.320Z,98420.03
2022-08-04T02:11:36.663Z,98415.00
2022-08-04T02:14:13.768Z,98421.06
2022-08-04T02:16:46.244Z,98410.72
2022-08-04T02:19:26.677Z,98413.91
2022-08-04T02:21:58.791Z,98410.69
2022-08-04T02:24:28.761Z,98406.81
2022-08-04T02:26:58.168Z,98409.41
2022-08-04T02:29:32.385Z,98404.41
2022-08-04T02:32:05.708Z,98401.00
2022-08-04T02:34:40.537Z,98395.34
2022-08-04T02:37:11.889Z,98400.88
2022-08-04T02:39:48.678Z,98398.94
2022-08-04T02:42:18.238Z,98392.22
2022-08-04T02:44:50.955Z,98394.16
2022-08-04T02:47:22.731Z,98394.47
2022-08-04T02:49:52.724Z,98391.91
2022-08-04T02:52:22.125Z,98391.59
2022-08-04T02:54:54.849Z,98389.13
2022-08-04T02:57:25.204Z,98390.16
2022-08-04T03:00:01.984Z,98396.22
2022-08-04T03:02:37.766Z,98397.00
2022-08-04T03:05:14.568Z,98403.44
2022-08-04T03:07:59.623Z,98401.63
2022-08-04T03:10:59.595Z,98401.31
2022-08-04T03:13:53.630Z,98397.28
2022-08-04T03:16:52.035Z,98409.50
2022-08-04T03:20:05.908Z,98403.16
2022-08-04T03:23:13.026Z,98410.31
2022-08-04T03:26:09.502Z,98401.91
2022-08-04T03:29:09.591Z,98403.38
2022-08-04T03:32:13.297Z,98409.09
2022-08-04T03:34:55.493Z,98416.06
2022-08-04T03:37:47.964Z,98407.09
2022-08-04T03:40:58.373Z,98415.75
2022-08-04T03:44:00.282Z,98416.94
2022-08-04T03:46:33.288Z,98422.22
2022-08-04T03:49:50.337Z,98419.88
2022-08-04T03:52:53.398Z,98421.09
2022-08-04T03:55:36.815Z,98421.78
2022-08-04T03:58:41.426Z,98419.91
2022-08-04T04:01:21.813Z,98416.00
2022-08-04T04:04:03.318Z,98412.97
2022-08-04T04:06:53.776Z,98409.75
2022-08-04T04:09:57.745Z,98417.56
2022-08-04T04:12:37.125Z,98421.97
2022-08-04T04:15:16.052Z,98420.50
2022-08-04T04:17:55.665Z,98417.47
2022-08-04T04:20:37.870Z,98411.56
2022-08-04T04:23:26.108Z,98411.03
2022-08-04T04:26:05.880Z,98417.03
2022-08-04T04:28:47.225Z,98413.13
2022-08-04T04:31:36.128Z,98414.16
2022-08-04T04:34:14.253Z,98418.19
2022-08-04T04:36:53.740Z,98414.56
2022-08-04T04:39:30.652Z,98420.16
2022-08-04T04:42:07.554Z,98418.69
2022-08-04T04:44:48.395Z,98422.81
2022-08-04T04:48:06.986Z,98419.22
2022-08-04T04:50:15.993Z,98428.53
2022-08-04T04:52:49.376Z,98416.50
2022-08-04T04:55:22.874Z,98424.53
2022-08-04T04:57:53.853Z,98420.44
2022-08-04T05:00:25.570Z,98417.19
2022-08-04T05:03:13.871Z,98418.44
2022-08-04T05:05:54.883Z,98425.06
2022-08-04T05:08:54.307Z,98419.97
2022-08-04T05:11:55.024Z,98428.50
2022-08-04T05:14:36.961Z,98430.59
2022-08-04T05:17:16.725Z,98433.47
2022-08-04T05:19:53.191Z,98442.28
2022-08-04T05:22:25.621Z,98435.00
2022-08-04T05:25:00.841Z,98440.97
2022-08-04T05:27:35.940Z,98433.84
2022-08-04T05:30:08.822Z,98437.44
2022-08-04T05:32:44.619Z,98442.25
2022-08-04T05:35:50.432Z,98435.06
2022-08-04T05:38:08.031Z,98433.06
2022-08-04T05:40:36.597Z,98437.56
2022-08-04T05:43:04.682Z,98432.97
2022-08-04T05:45:39.192Z,98437.88
2022-08-04T05:48:09.356Z,98437.13
2022-08-04T05:50:38.373Z,98441.72
2022-08-04T05:53:08.899Z,98438.97
2022-08-04T05:55:48.849Z,98431.84
2022-08-04T05:58:26.608Z,98446.66
2022-08-04T06:00:56.037Z,98445.63
2022-08-04T06:03:24.280Z,98436.06
2022-08-04T06:05:53.130Z,98445.94
2022-08-04T06:08:22.645Z,98444.41
2022-08-04T06:10:52.487Z,98436.47
2022-08-04T06:13:49.610Z,98436.84
2022-08-04T06:16:17.828Z,98442.16
2022-08-04T06:19:59.107Z,98445.22
2022-08-04T06:21:49.447Z,98448.78
2022-08-04T06:24:19.859Z,98440.13
2022-08-04T06:26:49.488Z,98443.38
2022-08-04T06:29:25.020Z,98455.88
2022-08-04T06:32:29.489Z,98461.19
2022-08-04T06:34:55.139Z,98456.06
2022-08-04T06:37:42.013Z,98456.94
2022-08-04T06:40:29.845Z,98461.16
2022-08-04T06:43:01.642Z,98455.22
2022-08-04T06:45:30.235Z,98457.97
2022-08-04T06:47:58.566Z,98455.19
2022-08-04T06:51:26.758Z,98445.34
2022-08-04T06:53:16.267Z,98454.72
2022-08-04T06:55:48.371Z,98453.91
2022-08-04T06:58:16.926Z,98452.88
2022-08-04T07:00:47.321Z,98444.34
2022-08-04T07:03:16.921Z,98449.69
2022-08-04T07:05:47.718Z,98445.84
2022-08-04T07:08:16.292Z,98449.75
2022-08-04T07:10:46.234Z,98438.00
2022-08-04T07:13:14.743Z,98450.28
2022-08-04T07:15:45.789Z,98444.16
2022-08-04T07:18:13.972Z,98446.28
2022-08-04T07:20:43.330Z,98446.44
2022-08-04T07:23:13.831Z,98435.25
2022-08-04T07:25:59.450Z,98435.81
2022-08-04T07:28:31.954Z,98434.25
2022-08-04T07:31:00.545Z,98441.63
2022-08-04T07:33:29.152Z,98439.53
2022-08-04T07:36:09.679Z,98448.09
2022-08-04T07:38:48.129Z,98442.47
2022-08-04T07:41:38.506Z,98439.63
2022-08-04T07:44:08.557Z,98439.50
2022-08-04T07:46:37.156Z,98436.59
2022-08-04T07:49:05.789Z,98438.44
2022-08-04T07:51:35.523Z,98436.81
2022-08-04T07:54:05.435Z,98437.59
2022-08-04T07:56:34.566Z,98443.91
2022-08-04T07:59:03.456Z,98435.22
2022-08-04T08:01:33.610Z,98433.69
2022-08-04T08:04:02.337Z,98437.13
2022-08-04T08:06:34.905Z,98439.94
2022-08-04T08:09:13.070Z,98434.41
2022-08-04T08:12:37.904Z,98440.38
2022-08-04T08:14:31.746Z,98439.00
2022-08-04T08:17:02.666Z,98433.78
2022-08-04T08:19:31.606Z,98434.03
2022-08-04T08:22:03.079Z,98436.41
2022-08-04T08:24:31.928Z,98432.50
2022-08-04T08:27:01.234Z,98432.00
2022-08-04T08:29:30.185Z,98439.25
2022-08-04T08:32:01.664Z,98436.84
2022-08-04T08:34:33.370Z,98429.34
2022-08-04T08:37:07.686Z,98423.78
2022-08-04T08:39:38.788Z,98438.47
2022-08-04T08:42:39.570Z,98427.25
2022-08-04T08:45:23.721Z,98441.16
2022-08-04T08:48:12.805Z,98447.22
2022-08-04T08:51:07.070Z,98450.09
2022-08-04T08:53:49.761Z,98447.91
2022-08-04T08:56:31.527Z,98441.13
2022-08-04T08:59:15.884Z,98438.81
2022-08-04T09:02:02.259Z,98437.16
2022-08-04T09:05:08.957Z,98446.94
2022-08-04T09:07:52.543Z,98447.72
2022-08-04T09:10:23.184Z,98449.84
2022-08-04T09:12:55.216Z,98433.47
2022-08-04T09:15:30.214Z,98440.47
2022-08-04T09:18:01.273Z,98432.16
2022-08-04T09:20:33.002Z,98450.47
2022-08-04T09:23:18.705Z,98450.81
2022-08-04T09:25:52.420Z,98439.16
2022-08-04T09:28:51.764Z,98437.47
2022-08-04T09:31:14.844Z,98438.31
2022-08-04T09:33:49.054Z,98441.56
2022-08-04T09:36:27.840Z,98431.91
2022-08-04T09:39:19.868Z,98433.56
2022-08-04T09:41:56.125Z,98436.25
2022-08-04T09:44:52.268Z,98421.13
2022-08-04T09:47:39.631Z,98418.81
2022-08-04T09:50:28.298Z,98422.75
2022-08-04T09:53:00.575Z,98431.69
2022-08-04T09:55:53.918Z,98415.09
2022-08-04T09:58:29.666Z,98430.91
2022-08-04T10:01:02.689Z,98416.53
2022-08-04T10:03:34.323Z,98406.34
2022-08-04T10:06:11.765Z,98425.00
2022-08-04T10:08:57.148Z,98409.50
2022-08-04T10:11:56.038Z,98406.69
2022-08-04T10:14:38.327Z,98413.34
2022-08-04T10:17:17.438Z,98409.44
2022-08-04T10:19:47.346Z,98424.56
2022-08-04T10:22:29.362Z,98418.25
2022-08-04T10:25:05.245Z,98421.09
2022-08-04T10:27:57.631Z,98403.03
2022-08-04T10:30:26.698Z,98415.88
2022-08-04T10:33:07.789Z,98426.94
2022-08-04T10:35:39.849Z,98410.13
2022-08-04T10:38:13.513Z,98400.25
2022-08-04T10:40:45.571Z,98405.31
2022-08-04T10:43:24.060Z,98403.97
2022-08-04T10:45:58.381Z,98403.34
2022-08-04T10:48:37.773Z,98404.75
2022-08-04T10:51:16.843Z,98404.66
2022-08-04T10:53:45.821Z,98396.66
2022-08-04T10:56:32.028Z,98399.59
2022-08-04T10:59:05.450Z,98388.16
2022-08-04T11:02:01.132Z,98415.06
2022-08-04T11:04:29.255Z,98391.16
2022-08-04T11:06:57.744Z,98396.91
2022-08-04T11:09:25.959Z,98394.78
2022-08-04T11:12:00.429Z,98399.44
2022-08-04T11:14:35.234Z,98393.59
2022-08-04T11:17:07.990Z,98399.06
2022-08-04T11:19:44.746Z,98407.25
2022-08-04T11:22:25.271Z,98396.09
2022-08-04T11:24:55.696Z,98394.81
2022-08-04T11:27:29.693Z,98392.25
2022-08-04T11:30:04.994Z,98403.81
2022-08-04T11:32:38.995Z,98397.63
2022-08-04T11:35:13.257Z,98389.88
2022-08-04T11:37:50.278Z,98390.56
2022-08-04T11:40:25.801Z,98385.06
2022-08-04T11:42:57.094Z,98375.03
2022-08-04T11:45:33.171Z,98366.44
2022-08-04T11:48:07.828Z,98376.03
2022-08-04T11:50:39.194Z,98376.50
2022-08-04T11:53:08.320Z,98373.78
2022-08-04T11:56:09.475Z,98374.69
2022-08-04T11:58:25.985Z,98370.94
2022-08-04T12:01:05.542Z,98370.31
2022-08-04T12:03:38.155Z,98371.16
2022-08-04T12:06:15.333Z,98370.06
2022-08-04T12:08:55.547Z,98376.28
2022-08-04T12:11:31.040Z,98360.22
2022-08-04T12:14:07.707Z,98355.06
2022-08-04T12:16:44.024Z,98356.16
2022-08-04T12:19:18.954Z,98342.97
2022-08-04T12:21:55.677Z,98351.88
2022-08-04T12:24:29.391Z,98365.66
2022-08-04T12:26:59.750Z,98362.38
2022-08-04T12:29:30.549Z,98349.56
2022-08-04T12:32:04.348Z,98347.59
2022-08-04T12:34:35.846Z,98342.09
2022-08-04T12:37:08.189Z,98343.59
2022-08-04T12:40:27.277Z,98340.75
2022-08-04T12:42:33.320Z,98349.44
2022-08-04T12:45:06.083Z,98337.19
2022-08-04T12:47:37.025Z,98349.84
2022-08-04T12:50:07.151Z,98346.88
2022-08-04T12:55:34.756Z,98333.97
2022-08-04T12:58:03.583Z,98334.75
2022-08-04T13:00:43.992Z,98332.84
2022-08-04T13:03:16.370Z,98341.53
2022-08-04T13:05:45.132Z,98332.53
2022-08-04T13:08:15.538Z,98335.56
2022-08-04T13:10:46.453Z,98338.59
2022-08-04T13:13:18.151Z,98318.13
2022-08-04T13:15:57.766Z,98314.03
2022-08-04T13:18:32.507Z,98303.28
2022-08-04T13:21:21.035Z,98328.41
2022-08-04T13:24:19.236Z,98309.47
2022-08-04T13:26:54.311Z,98303.44
2022-08-04T13:30:00.304Z,98301.13
2022-08-04T13:32:17.382Z,98303.06
2022-08-04T13:34:48.824Z,98302.13
2022-08-04T13:37:20.605Z,98314.41
2022-08-04T13:39:55.864Z,98301.34
2022-08-04T13:42:25.965Z,98306.41
2022-08-04T13:44:56.476Z,98311.53
2022-08-04T13:47:28.494Z,98297.66
2022-08-04T13:50:20.434Z,98299.06
2022-08-04T13:52:53.141Z,98307.97
2022-08-04T13:55:23.696Z,98292.25
2022-08-04T13:57:56.403Z,98301.94
2022-08-04T14:00:29.228Z,98308.06
2022-08-04T14:03:02.692Z,98314.94
2022-08-04T14:05:58.946Z,98294.91
2022-08-04T14:08:26.618Z,98298.25
2022-08-04T14:10:58.818Z,98290.94
2022-08-04T14:13:41.592Z,98289.91
2022-08-04T14:16:18.302Z,98284.56
2022-08-04T14:18:46.843Z,98286.91
2022-08-04T14:21:17.837Z,98283.22
2022-08-04T14:23:48.039Z,98292.09
2022-08-04T14:26:19.009Z,98288.50
2022-08-04T14:29:25.901Z,98291.56
2022-08-04T14:31:35.927Z,98283.94
2022-08-04T14:34:27.396Z,98277.88
2022-08-04T14:37:17.570Z,98283.41
2022-08-04T14:40:18.402Z,98273.84
2022-08-04T14:42:41.821Z,98272.47
2022-08-04T14:45:11.153Z,98274.34
2022-08-04T14:47:51.734Z,98276.81
2022-08-04T14:50:20.971Z,98271.16
2022-08-04T14:52:50.688Z,98260.47
2022-08-04T14:55:20.966Z,98263.03
2022-08-04T14:58:33.867Z,98263.03
2022-08-04T15:00:38.651Z,98269.00
2022-08-04T15:03:09.124Z,98271.69
2022-08-04T15:05:59.778Z,98270.31
2022-08-04T15:08:30.999Z,98260.69
2022-08-04T15:11:02.574Z,98263.34
2022-08-04T15:13:31.362Z,98264.78
2022-08-04T15:16:06.371Z,98266.66
2022-08-04T15:18:39.724Z,98273.66
2022-08-04T15:21:08.605Z,98274.75
2022-08-04T15:23:40.061Z,98263.38
2022-08-04T15:26:11.784Z,98265.25
2022-08-04T15:28:41.699Z,98264.38
2022-08-04T15:32:03.935Z,98266.50
2022-08-04T15:33:59.493Z,98260.53
2022-08-04T15:36:36.461Z,98265.47
2022-08-04T15:39:11.548Z,98254.78
2022-08-04T15:41:55.364Z,98254.47
2022-08-04T15:45:01.193Z,98269.78
2022-08-04T15:47:30.682Z,98257.25
2022-08-04T15:50:08.377Z,98259.03
2022-08-04T15:53:10.761Z,98249.44
2022-08-04T15:55:44.129Z,98256.66
2022-08-04T15:58:13.532Z,98261.72
2022-08-04T16:01:16.902Z,98252.63
2022-08-04T16:03:54.195Z,98250.75
2022-08-04T16:06:45.496Z,98253.72
2022-08-04T16:09:45.531Z,98256.91
2022-08-04T16:12:54.389Z,98247.31
2022-08-04T16:15:41.401Z,98255.56
2022-08-04T16:18:15.144Z,98254.78
2022-08-04T16:20:56.110Z,98245.28
2022-08-04T16:23:56.017Z,98251.28
2022-08-04T16:26:46.365Z,98252.72
2022-08-04T16:29:32.023Z,98255.47
2022-08-04T16:32:16.368Z,98247.91
2022-08-04T16:34:54.587Z,98250.78
2022-08-04T16:37:26.299Z,98248.84
2022-08-04T16:40:33.722Z,98251.69
2022-08-04T16:43:06.802Z,98248.28
2022-08-04T16:45:44.332Z,98253.53
2022-08-04T16:48:14.587Z,98241.91
2022-08-04T16:50:52.089Z,98249.34
2022-08-04T16:53:52.484Z,98240.97
2022-08-04T16:56:10.991Z,98244.41
2022-08-04T16:58:50.059Z,98241.66
2022-08-04T17:01:33.257Z,98240.22
2022-08-04T17:04:08.045Z,98250.19
2022-08-04T17:06:38.341Z,98243.69
2022-08-04T17:09:08.354Z,98246.91
2022-08-04T17:11:36.507Z,98246.91
2022-08-04T17:14:06.110Z,98252.13
2022-08-04T17:16:36.434Z,98247.78
2022-08-04T17:19:07.022Z,98253.38
2022-08-04T17:21:49.570Z,98247.72
2022-08-04T17:24:18.238Z,98259.06
2022-08-04T17:26:53.919Z,98249.13
2022-08-04T17:29:44.490Z,98250.72
2022-08-04T17:32:18.829Z,98253.47
2022-08-04T17:34:52.054Z,98255.13
2022-08-04T17:37:41.007Z,98250.41
2022-08-04T17:40:13.248Z,98251.00
2022-08-04T17:42:42.303Z,98248.06
2022-08-04T17:48:03.704Z,98247.78
2022-08-04T17:50:36.052Z,98243.06
2022-08-04T17:53:12.238Z,98246.63
2022-08-04T17:55:42.685Z,98248.63
2022-08-04T17:58:21.465Z,98249.53
2022-08-04T18:01:23.540Z,98243.97
2022-08-04T18:03:54.561Z,98247.19
2022-08-04T18:06:25.524Z,98247.56
2022-08-04T18:08:57.617Z,98250.53
2022-08-04T18:11:29.750Z,98260.97
2022-08-04T18:14:09.938Z,98266.72
2022-08-04T18:16:44.250Z,98265.34
2022-08-04T18:19:13.659Z,98270.97
2022-08-04T18:21:46.881Z,98269.09
2022-08-04T18:24:35.788Z,98270.47
2022-08-04T18:27:17.969Z,98268.19
2022-08-04T18:30:15.412Z,98277.34
2022-08-04T18:32:35.751Z,98279.38
2022-08-04T18:35:07.452Z,98279.66
2022-08-04T18:38:05.947Z,98275.91
2022-08-04T18:43:14.584Z,98282.41
2022-08-04T18:45:51.215Z,98285.78
2022-08-04T18:48:19.901Z,98287.53
2022-08-04T18:51:09.646Z,98292.25
2022-08-04T18:53:38.218Z,98293.78
2022-08-04T18:56:20.083Z,98300.38
2022-08-04T18:58:59.971Z,98291.47
2022-08-04T19:02:13.455Z,98293.31
2022-08-04T19:04:33.455Z,98291.94
2022-08-04T19:07:28.739Z,98294.25
2022-08-04T19:09:58.099Z,98290.75
2022-08-04T19:12:29.298Z,98295.34
2022-08-04T19:15:08.689Z,98297.81
2022-08-04T19:17:53.417Z,98295.41
2022-08-04T19:20:26.685Z,98298.56
2022-08-04T19:24:29.162Z,98298.63
2022-08-04T19:25:59.571Z,98305.25
2022-08-04T19:28:35.208Z,98299.97
2022-08-04T19:31:05.021Z,98297.63
2022-08-04T19:33:58.067Z,98309.41
2022-08-04T19:36:27.845Z,98297.22
2022-08-04T19:38:58.132Z,98298.69
2022-08-04T19:41:29.574Z,98296.31
2022-08-04T19:44:02.251Z,98299.25
2022-08-04T19:46:31.090Z,98295.63
2022-08-04T19:49:00.865Z,98293.25
2022-08-04T19:51:30.484Z,98292.78
2022-08-04T19:54:04.128Z,98294.09
2022-08-04T19:56:40.532Z,98293.69
2022-08-04T19:59:10.408Z,98301.28
2022-08-04T20:01:44.092Z,98301.44
2022-08-04T20:04:14.627Z,98290.94
2022-08-04T20:06:43.664Z,98287.34
2022-08-04T20:09:26.351Z,98295.75
2022-08-04T20:11:58.242Z,98299.28
2022-08-04T20:14:32.654Z,98298.56
2022-08-04T20:21:11.259Z,98298.19
2022-08-04T20:23:49.890Z,98299.88
2022-08-04T20:26:18.427Z,98300.66
2022-08-04T20:28:51.789Z,98294.19
2022-08-04T20:31:20.590Z,98296.63
2022-08-04T20:33:53.744Z,98291.03
2022-08-04T20:36:23.619Z,98295.41
2022-08-04T20:38:53.051Z,98293.38
2022-08-04T20:41:21.550Z,98295.03
2022-08-04T20:43:51.257Z,98294.22
2022-08-04T20:46:28.469Z,98291.75
2022-08-04T20:48:58.047Z,98292.97
2022-08-04T20:51:33.329Z,98292.09
2022-08-04T20:54:02.631Z,98297.00
2022-08-04T20:56:31.748Z,98293.38
2022-08-04T20:59:01.376Z,98294.16
2022-08-04T21:01:36.663Z,98296.06
2022-08-04T21:04:28.233Z,98293.94
2022-08-04T21:06:58.068Z,98293.31
2022-08-04T21:09:37.814Z,98293.75
2022-08-04T21:12:17.030Z,98293.38
2022-08-04T21:15:01.421Z,98294.63
2022-08-04T21:17:59.345Z,98301.75
2022-08-04T21:20:29.654Z,98301.38
2022-08-04T21:23:02.020Z,98294.13
2022-08-04T21:25:30.728Z,98290.09
2022-08-04T21:30:53.932Z,98293.38
2022-08-04T21:33:23.094Z,98297.34
2022-08-04T21:35:54.255Z,98294.56
2022-08-04T21:38:25.163Z,98283.78
2022-08-04T21:40:57.821Z,98287.34
2022-08-04T21:43:28.670Z,98282.91
2022-08-04T21:46:04.076Z,98289.34
2022-08-04T21:48:33.570Z,98291.19
2022-08-04T21:54:03.736Z,98281.13
2022-08-04T21:56:32.036Z,98285.38
2022-08-04T21:59:00.370Z,98285.44
2022-08-04T22:01:50.351Z,98291.19
2022-08-04T22:04:18.833Z,98279.50
2022-08-04T22:06:47.605Z,98277.22
2022-08-04T22:09:21.981Z,98280.06
2022-08-04T22:11:51.959Z,98288.50
2022-08-04T22:14:29.552Z,98273.63
2022-08-04T22:17:05.185Z,98274.47
2022-08-04T22:19:50.771Z,98282.94
2022-08-04T22:22:26.125Z,98276.03
2022-08-04T22:24:58.715Z,98277.66
2022-08-04T22:28:02.593Z,98284.41
2022-08-04T22:30:33.170Z,98280.94
2022-08-04T22:33:08.822Z,98272.50
2022-08-04T22:35:48.859Z,98272.22
2022-08-04T22:38:24.232Z,98278.78
2022-08-04T22:41:02.047Z,98267.72
2022-08-04T22:43:32.479Z,98283.66
2022-08-04T22:46:03.836Z,98269.09
2022-08-04T22:48:34.259Z,98279.56
2022-08-04T22:51:03.146Z,98272.56
2022-08-04T22:53:32.260Z,98268.69
2022-08-04T22:56:10.056Z,98269.91
2022-08-04T22:58:45.357Z,98270.63
2022-08-04T23:01:15.384Z,98267.91
2022-08-04T23:03:55.215Z,98263.78
2022-08-04T23:06:25.595Z,98255.94
2022-08-04T23:08:57.371Z,98257.88
2022-08-04T23:11:34.629Z,98251.28
2022-08-04T23:14:04.527Z,98254.06
2022-08-04T23:16:33.081Z,98255.72
2022-08-04T23:19:15.171Z,98241.25
2022-08-04T23:21:47.958Z,98238.50
2022-08-04T23:24:30.233Z,98242.97
2022-08-04T23:26:58.945Z,98236.88
2022-08-04T23:29:27.638Z,98226.78
2022-08-04T23:32:15.772Z,98232.69
2022-08-04T23:34:49.973Z,98226.75
2022-08-04T23:37:18.360Z,98236.06
2022-08-04T23:40:14.702Z,98234.00
2022-08-04T23:42:35.138Z,98234.41
2022-08-04T23:45:03.578Z,98226.78
2022-08-04T23:48:14.619Z,98222.78
2022-08-04T23:50:21.627Z,98220.41
2022-08-04T23:52:49.778Z,98225.56
2022-08-04T23:55:21.393Z,98223.47
2022-08-04T23:58:06.099Z,98218.44
